aviador You're here:

KBHB Decoded Metar

BAR HARBOR in ME, USA
Report Time2017-07-21 07:56:00
UTC Time2017-07-21 08:40:03
Flight Rules mvfr MVFR
WindCalm
Visibility4828 m
Phenomena:Mist
Clouds:N/A
CeilingNone
Temp17°C (ISA +2)
Dew Point17°C (100% RH)
QNH1008 hPa
Density Alt768 ft
Elevation85 ft
Report Wrong Elevation
Raw Report
METAR KBHB 210756Z AUTO 00000KT 3SM BR CLR 17/17 A2978 RMK AO2 SLP089
T01670167 $=

Extra information for KBHB:More info

Metar Taf Metar & Taf Last 4 Metars F.Rules Stats Wind Profile Meteogram Temp Stats Airport Information Weather charts Add Link Nearby VenuesMetar ALERT Operation Metar Decoded Social comments

AIRNAV info for KBHB